Wan Hai 267 — 9VDB6 — position and weather

sailwx.info

Track history (hours):
 
Tides and Currents Weather Stations Pressure Air Temp Water Temp Dewpoint Dewpoint Depression Visibility Wind Speed Wind Dir Waves Ship Positions

Wan Hai 267

Last reported at 2018-Jun-17 08:11 UTC. Time now 2018-Jun-19 06:55 UTC.
Position N 24°20' E 118°22'.

Length 198 m; draft 9.1 m.

Type: Cargo ship. MMSI: 564527118.

Date/timePositionNaut miles runAvg speedWind from/ knotsBaromVisibWave heightAir tempDewpointWater temp
2018-Jun-17 08:11N 24°20' E 118°22'416.4
2018-Jun-17 07:56N 24°20' E 118°18'715.7
2018-Jun-17 07:30N 24°20' E 118°10'612.6
2018-Jun-17 07:00N 24°25' E 118°05'5 9.6
2018-Jun-17 06:30N 24°29' E 118°04'2 0.2
2018-Jun-16 18:10N 24°31' E 118°05'1 3.8
2018-Jun-16 18:00N 24°31' E 118°04'5 9.6
2018-Jun-16 17:30N 24°26' E 118°03'612.7
2018-Jun-16 17:00N 24°22' E 118°08'4 8.9
2018-Jun-16 16:30N 24°20' E 118°12'2 3.1
2018-Jun-16 16:00N 24°18' E 118°13'2 3.2
2018-Jun-16 15:31N 24°17' E 118°14'20 3.4
2018-Jun-16 09:44N 23°58' E 118°11'3 8.7
2018-Jun-16 09:26N 23°57' E 118°08'  
2018-Jun-11 19:01N 20°12' E 110°20'313.3
2018-Jun-11 18:48N 20°13' E 110°23'244 7.8
2018-Jun-10 11:31N 22°20' E 114°07'1 0.0
2018-Jun-10 00:21N 22°20' E 114°07'30212.0
2018-Jun-08 23:16N 22°28' E 119°33'416.9
2018-Jun-08 23:00N 22°29' E 119°38'1116.9
2018-Jun-08 22:19N 22°30' E 119°51'515.2
2018-Jun-08 22:00N 22°31' E 119°56'612.1
2018-Jun-08 21:30N 22°31' E 120°02'612.0
2018-Jun-08 21:01N 22°32' E 120°09'611.9
2018-Jun-08 20:30N 22°33' E 120°15'4 7.5
2018-Jun-08 20:01N 22°34' E 120°19'1 2.2
2018-Jun-08 19:24N 22°35' E 120°18'0 0.0
2018-Jun-08 18:50N 22°35' E 120°18'0 0.0
2018-Jun-08 18:20N 22°35' E 120°18'0 0.0
2018-Jun-08 17:56N 22°35' E 120°18'0 0.0
2018-Jun-08 17:14N 22°35' E 120°18'0 0.0
2018-Jun-08 16:56N 22°35' E 120°18'0 0.0
2018-Jun-08 16:14N 22°35' E 120°18'0 0.0
2018-Jun-08 15:56N 22°35' E 120°18'0 0.0
2018-Jun-08 15:08N 22°35' E 120°18'0 0.0
2018-Jun-08 14:56N 22°35' E 120°18'0 0.0
2018-Jun-08 14:26N 22°35' E 120°18'0 0.0
2018-Jun-08 13:50N 22°35' E 120°18'0 0.0
2018-Jun-08 11:50N 22°35' E 120°18'0 0.0
2018-Jun-08 11:27N 22°35' E 120°18'2 5.3
2018-Jun-08 11:00N 22°37' E 120°17'2 4.8
2018-Jun-08 10:30N 22°37' E 120°14'1 3.0
2018-Jun-08 10:00N 22°36' E 120°14'2 3.3
2018-Jun-08 09:30N 22°34' E 120°14'0 0.0
2018-Jun-08 09:00N 22°34' E 120°14'0 0.1
2018-Jun-08 08:24N 22°34' E 120°14'0 0.0
2018-Jun-08 07:54N 22°34' E 120°14'0 0.1
2018-Jun-08 07:06N 22°34' E 120°14'0 0.0
2018-Jun-08 06:54N 22°34' E 120°14'0 0.0
2018-Jun-08 06:18N 22°34' E 120°14'0 0.0
2018-Jun-08 06:00N 22°34' E 120°14'0 0.0
2018-Jun-08 05:30N 22°34' E 120°14'0 0.0
2018-Jun-08 05:00N 22°34' E 120°14'0 0.0
2018-Jun-08 04:30N 22°34' E 120°14'0 0.0
2018-Jun-08 04:00N 22°34' E 120°14'0 0.0
2018-Jun-08 03:30N 22°34' E 120°14'0 0.0
2018-Jun-08 03:00N 22°34' E 120°14'0 0.0
2018-Jun-08 02:30N 22°34' E 120°14'0 0.0
2018-Jun-08 02:00N 22°34' E 120°14'0 0.0
2018-Jun-08 01:30N 22°34' E 120°14'0 0.0
2018-Jun-08 01:00N 22°34' E 120°14'0 0.0
2018-Jun-08 00:30N 22°34' E 120°14'0 0.1
2018-Jun-08 00:00N 22°34' E 120°14'0 0.0
2018-Jun-07 23:30N 22°34' E 120°14'0 0.0
2018-Jun-07 23:00N 22°34' E 120°14'0 0.0
2018-Jun-07 22:30N 22°34' E 120°14'0 0.1
2018-Jun-07 22:00N 22°34' E 120°14'0 0.0
2018-Jun-07 21:24N 22°34' E 120°14'0 0.0
2018-Jun-07 21:00N 22°34' E 120°14'0 0.0
2018-Jun-07 20:24N 22°34' E 120°14'0 0.0
2018-Jun-07 20:00N 22°34' E 120°14'0 0.0
2018-Jun-07 19:30N 22°34' E 120°14'0 0.0
2018-Jun-07 19:00N 22°34' E 120°14'0 0.0
2018-Jun-07 18:30N 22°34' E 120°14'0 0.1
2018-Jun-07 18:00N 22°34' E 120°14'1 2.4
2018-Jun-07 17:30N 22°34' E 120°13'610.6
2018-Jun-07 16:59N 22°37' E 120°08'711.9
2018-Jun-07 16:26N 22°43' E 120°04'511.8
2018-Jun-07 15:59N 22°47' E 120°02'713.3
2018-Jun-07 15:30N 22°53' E 119°59'  
Track history (hours):
 
Tides and Currents Weather Stations Pressure Air Temp Water Temp Dewpoint Dewpoint Depression Visibility Wind Speed Wind Dir Waves Ship Positions

Wan Hai 267

Last reported at 2018-Jun-17 08:11 UTC. Time now 2018-Jun-19 06:55 UTC.
Position N 24°20' E 118°22'.

Length 198 m; draft 9.1 m.

Type: Cargo ship. MMSI: 564527118.

Date/timePositionNaut miles runAvg speedWind from/ knotsBaromVisibWave heightAir tempDewpointWater temp
2018-Jun-17 08:11N 24°20' E 118°22'416.4
2018-Jun-17 07:56N 24°20' E 118°18'715.7
2018-Jun-17 07:30N 24°20' E 118°10'612.6
2018-Jun-17 07:00N 24°25' E 118°05'5 9.6
2018-Jun-17 06:30N 24°29' E 118°04'2 0.2
2018-Jun-16 18:10N 24°31' E 118°05'1 3.8
2018-Jun-16 18:00N 24°31' E 118°04'5 9.6
2018-Jun-16 17:30N 24°26' E 118°03'612.7
2018-Jun-16 17:00N 24°22' E 118°08'4 8.9
2018-Jun-16 16:30N 24°20' E 118°12'2 3.1
2018-Jun-16 16:00N 24°18' E 118°13'2 3.2
2018-Jun-16 15:31N 24°17' E 118°14'20 3.4
2018-Jun-16 09:44N 23°58' E 118°11'3 8.7
2018-Jun-16 09:26N 23°57' E 118°08'  
2018-Jun-11 19:01N 20°12' E 110°20'313.3
2018-Jun-11 18:48N 20°13' E 110°23'244 7.8
2018-Jun-10 11:31N 22°20' E 114°07'1 0.0
2018-Jun-10 00:21N 22°20' E 114°07'30212.0
2018-Jun-08 23:16N 22°28' E 119°33'416.9
2018-Jun-08 23:00N 22°29' E 119°38'1116.9
2018-Jun-08 22:19N 22°30' E 119°51'515.2
2018-Jun-08 22:00N 22°31' E 119°56'612.1
2018-Jun-08 21:30N 22°31' E 120°02'612.0
2018-Jun-08 21:01N 22°32' E 120°09'611.9
2018-Jun-08 20:30N 22°33' E 120°15'4 7.5
2018-Jun-08 20:01N 22°34' E 120°19'1 2.2
2018-Jun-08 19:24N 22°35' E 120°18'0 0.0
2018-Jun-08 18:50N 22°35' E 120°18'0 0.0
2018-Jun-08 18:20N 22°35' E 120°18'0 0.0
2018-Jun-08 17:56N 22°35' E 120°18'0 0.0
2018-Jun-08 17:14N 22°35' E 120°18'0 0.0
2018-Jun-08 16:56N 22°35' E 120°18'0 0.0
2018-Jun-08 16:14N 22°35' E 120°18'0 0.0
2018-Jun-08 15:56N 22°35' E 120°18'0 0.0
2018-Jun-08 15:08N 22°35' E 120°18'0 0.0
2018-Jun-08 14:56N 22°35' E 120°18'0 0.0
2018-Jun-08 14:26N 22°35' E 120°18'0 0.0
2018-Jun-08 13:50N 22°35' E 120°18'0 0.0
2018-Jun-08 11:50N 22°35' E 120°18'0 0.0
2018-Jun-08 11:27N 22°35' E 120°18'2 5.3
2018-Jun-08 11:00N 22°37' E 120°17'2 4.8
2018-Jun-08 10:30N 22°37' E 120°14'1 3.0
2018-Jun-08 10:00N 22°36' E 120°14'2 3.3
2018-Jun-08 09:30N 22°34' E 120°14'0 0.0
2018-Jun-08 09:00N 22°34' E 120°14'0 0.1
2018-Jun-08 08:24N 22°34' E 120°14'0 0.0
2018-Jun-08 07:54N 22°34' E 120°14'0 0.1
2018-Jun-08 07:06N 22°34' E 120°14'0 0.0
2018-Jun-08 06:54N 22°34' E 120°14'0 0.0
2018-Jun-08 06:18N 22°34' E 120°14'0 0.0
2018-Jun-08 06:00N 22°34' E 120°14'0 0.0
2018-Jun-08 05:30N 22°34' E 120°14'0 0.0
2018-Jun-08 05:00N 22°34' E 120°14'0 0.0
2018-Jun-08 04:30N 22°34' E 120°14'0 0.0
2018-Jun-08 04:00N 22°34' E 120°14'0 0.0
2018-Jun-08 03:30N 22°34' E 120°14'0 0.0
2018-Jun-08 03:00N 22°34' E 120°14'0 0.0
2018-Jun-08 02:30N 22°34' E 120°14'0 0.0
2018-Jun-08 02:00N 22°34' E 120°14'0 0.0
2018-Jun-08 01:30N 22°34' E 120°14'0 0.0
2018-Jun-08 01:00N 22°34' E 120°14'0 0.0
2018-Jun-08 00:30N 22°34' E 120°14'0 0.1
2018-Jun-08 00:00N 22°34' E 120°14'0 0.0
2018-Jun-07 23:30N 22°34' E 120°14'0 0.0
2018-Jun-07 23:00N 22°34' E 120°14'0 0.0
2018-Jun-07 22:30N 22°34' E 120°14'0 0.1
2018-Jun-07 22:00N 22°34' E 120°14'0 0.0
2018-Jun-07 21:24N 22°34' E 120°14'0 0.0
2018-Jun-07 21:00N 22°34' E 120°14'0 0.0
2018-Jun-07 20:24N 22°34' E 120°14'0 0.0
2018-Jun-07 20:00N 22°34' E 120°14'0 0.0
2018-Jun-07 19:30N 22°34' E 120°14'0 0.0
2018-Jun-07 19:00N 22°34' E 120°14'0 0.0
2018-Jun-07 18:30N 22°34' E 120°14'0 0.1
2018-Jun-07 18:00N 22°34' E 120°14'1 2.4
2018-Jun-07 17:30N 22°34' E 120°13'610.6
2018-Jun-07 16:59N 22°37' E 120°08'711.9
2018-Jun-07 16:26N 22°43' E 120°04'511.8
2018-Jun-07 15:59N 22°47' E 120°02'713.3
2018-Jun-07 15:30N 22°53' E 119°59'  

Dump ship's entire track history